Time;durP1;ratioP1;P1;durP2;ratioP2;P2;SDS_P1;SDS_P2;PMS_P1;PMS_P2;Temp;Humidity;BMP_temperature;BMP_pressure;BME280_temperature;BME280_humidity;BME280_pressure;Samples;Min_cycle;Max_cycle;Signal;HPM_P1;HPM_P2
2021/11/06 00:01:53;;;;;;;74.50;64.28;;;22.30;58.00;;;;;;4561844;57;21127;-31
2021/11/06 00:06:54;;;;;;;77.43;63.78;;;22.30;57.90;;;;;;4579141;57;21504;-30
2021/11/06 00:11:55;;;;;;;79.00;66.85;;;22.20;57.80;;;;;;4607857;57;21094;-21
2021/11/06 00:16:56;;;;;;;75.05;62.42;;;22.20;58.30;;;;;;4577780;57;21074;-26
2021/11/06 00:21:57;;;;;;;71.07;60.97;;;22.30;57.90;;;;;;4556727;61;21060;-18
2021/11/06 00:26:58;;;;;;;73.95;62.25;;;22.20;57.70;;;;;;4562929;57;21087;-20
2021/11/06 00:31:59;;;;;;;69.43;59.97;;;22.20;57.90;;;;;;4560325;57;21059;-29
2021/11/06 00:37:00;;;;;;;68.80;60.25;;;22.20;57.70;;;;;;4594988;57;21019;-26
2021/11/06 00:42:01;;;;;;;70.87;59.88;;;22.30;57.70;;;;;;4586172;57;21517;-29
2021/11/06 00:47:02;;;;;;;66.82;57.78;;;22.20;57.60;;;;;;4567353;57;21130;-35
2021/11/06 00:52:04;;;;;;;70.47;58.33;;;22.20;57.60;;;;;;4602734;57;21122;-25
2021/11/06 00:57:05;;;;;;;64.35;56.53;;;22.20;57.60;;;;;;4557780;61;21096;-23
2021/11/06 01:02:07;;;;;;;63.33;54.42;;;22.20;57.60;;;;;;4556716;61;21628;-22
2021/11/06 01:07:08;;;;;;;63.10;55.47;;;22.20;57.70;;;;;;4568809;57;21051;-33
2021/11/06 01:12:09;;;;;;;63.08;53.70;;;22.20;57.60;;;;;;4560837;57;22597;-30
2021/11/06 01:17:09;;;;;;;60.42;52.58;;;22.20;57.50;;;;;;4576070;57;21581;-29
2021/11/06 01:22:10;;;;;;;65.97;55.58;;;22.20;57.60;;;;;;4604939;57;21140;-28
2021/11/06 01:27:12;;;;;;;60.83;52.92;;;22.20;57.50;;;;;;4561309;57;21632;-24
2021/11/06 01:32:12;;;;;;;61.03;52.65;;;22.20;57.50;;;;;;4558090;57;21059;-27
2021/11/06 01:37:13;;;;;;;62.28;53.08;;;22.20;57.40;;;;;;4556974;59;21027;-28
2021/11/06 01:42:15;;;;;;;59.47;52.90;;;22.20;57.40;;;;;;4576407;57;21035;-25
2021/11/06 01:47:16;;;;;;;59.78;51.88;;;22.20;57.40;;;;;;4564535;57;21032;-19
2021/11/06 01:52:16;;;;;;;58.47;51.97;;;22.20;57.50;;;;;;4574330;57;21041;-26
2021/11/06 01:57:18;;;;;;;59.00;50.80;;;22.20;57.30;;;;;;4603483;57;21039;-27
2021/11/06 02:02:19;;;;;;;57.58;49.85;;;22.20;57.30;;;;;;4579262;57;21075;-25
2021/11/06 02:07:20;;;;;;;57.67;50.40;;;22.20;57.30;;;;;;4557771;61;21043;-28
2021/11/06 02:12:21;;;;;;;56.60;49.05;;;22.20;57.30;;;;;;4557225;61;21613;-24
2021/11/06 02:17:22;;;;;;;55.97;48.35;;;22.20;57.30;;;;;;4627039;57;21023;-28
2021/11/06 02:22:24;;;;;;;56.13;49.63;;;22.20;57.30;;;;;;4569740;57;22176;-29
2021/11/06 02:27:25;;;;;;;52.22;46.40;;;22.20;57.30;;;;;;4556952;61;21049;-30
2021/11/06 02:32:26;;;;;;;53.65;47.35;;;22.20;57.30;;;;;;4561946;57;21601;-24
2021/11/06 02:37:27;;;;;;;54.67;46.95;;;22.20;57.20;;;;;;4568418;57;21091;-22
2021/11/06 02:42:28;;;;;;;53.38;46.65;;;22.20;57.10;;;;;;4574525;57;21107;-21
2021/11/06 02:47:29;;;;;;;52.13;45.65;;;22.20;57.20;;;;;;4578547;57;21509;-34
2021/11/06 02:52:30;;;;;;;50.70;44.38;;;22.20;57.20;;;;;;4556478;61;21052;-30
2021/11/06 02:57:31;;;;;;;52.62;46.10;;;22.20;57.20;;;;;;4591300;57;21553;-27
2021/11/06 03:02:32;;;;;;;53.28;45.95;;;22.20;57.10;;;;;;4572228;57;21561;-31
2021/11/06 03:07:34;;;;;;;51.13;44.72;;;22.20;57.10;;;;;;4576595;57;21513;-34
2021/11/06 03:12:37;;;;;;;50.17;42.78;;;22.20;57.10;;;;;;4556423;59;21566;-20
2021/11/06 03:17:38;;;;;;;48.45;43.20;;;22.10;57.00;;;;;;4572894;57;21525;-26
2021/11/06 03:22:39;;;;;;;48.45;42.47;;;22.20;57.00;;;;;;4569020;57;21124;-24
2021/11/06 03:27:40;;;;;;;49.40;44.00;;;22.20;57.00;;;;;;4577034;57;21063;-34
2021/11/06 03:32:42;;;;;;;47.97;41.72;;;22.20;57.00;;;;;;4577706;57;21521;-33
2021/11/06 03:37:43;;;;;;;47.20;40.80;;;22.20;57.00;;;;;;4586100;57;21502;-33
2021/11/06 03:42:44;;;;;;;46.70;41.13;;;22.20;57.00;;;;;;4564285;57;21609;-35
2021/11/06 03:47:44;;;;;;;44.75;39.25;;;22.20;57.00;;;;;;4570566;57;21048;-29
2021/11/06 03:52:46;;;;;;;46.95;40.33;;;22.20;57.00;;;;;;4556897;61;21063;-29
2021/11/06 03:57:48;;;;;;;45.15;39.63;;;22.20;56.90;;;;;;4591754;57;21130;-32
2021/11/06 04:02:50;;;;;;;42.80;37.97;;;22.20;56.90;;;;;;4615083;57;21064;-37
2021/11/06 04:07:52;;;;;;;44.75;39.85;;;22.20;56.90;;;;;;4570941;57;21059;-28
2021/11/06 04:12:53;;;;;;;44.50;39.20;;;22.10;56.80;;;;;;4557680;61;21676;-36
2021/11/06 04:17:54;;;;;;;42.78;36.60;;;22.10;56.80;;;;;;4573138;57;21078;-37
2021/11/06 04:22:55;;;;;;;44.28;38.03;;;22.10;56.80;;;;;;4559899;57;21186;-31
2021/11/06 04:27:56;;;;;;;43.75;38.33;;;22.20;56.80;;;;;;4564790;57;21609;-34
2021/11/06 04:32:57;;;;;;;41.55;37.05;;;22.10;56.80;;;;;;4559961;57;21157;-35
2021/11/06 04:37:58;;;;;;;42.58;37.38;;;22.10;56.70;;;;;;4584350;57;21159;-35
2021/11/06 04:42:59;;;;;;;40.47;36.08;;;22.10;56.70;;;;;;4593617;57;21083;-34
2021/11/06 04:48:00;;;;;;;40.80;35.80;;;22.10;56.80;;;;;;4576640;57;22149;-35
2021/11/06 04:53:01;;;;;;;41.00;35.30;;;22.10;56.70;;;;;;4565104;57;21083;-23
2021/11/06 04:58:02;;;;;;;40.55;36.13;;;22.10;56.70;;;;;;4558993;61;22185;-32
2021/11/06 05:03:03;;;;;;;40.67;36.25;;;22.10;56.60;;;;;;4578842;57;22182;-37
2021/11/06 05:08:04;;;;;;;40.08;35.03;;;22.10;56.60;;;;;;4598806;57;21078;-34
2021/11/06 05:13:05;;;;;;;41.40;36.10;;;22.10;56.60;;;;;;4557306;58;21506;-36
2021/11/06 05:18:06;;;;;;;39.92;35.60;;;22.10;56.60;;;;;;4591646;57;21046;-37
2021/11/06 05:23:07;;;;;;;37.85;33.70;;;22.20;56.70;;;;;;4572941;57;21138;-32
2021/11/06 05:28:08;;;;;;;36.75;32.78;;;22.20;56.70;;;;;;4558356;57;21039;-31
2021/11/06 05:33:09;;;;;;;40.05;34.33;;;22.10;56.60;;;;;;4592122;57;21139;-32
2021/11/06 05:38:10;;;;;;;37.67;33.42;;;22.10;57.20;;;;;;4588362;57;21051;-30
2021/11/06 05:43:11;;;;;;;38.38;34.30;;;22.10;56.60;;;;;;4598602;57;21516;-28
2021/11/06 05:48:12;;;;;;;35.70;31.85;;;22.10;57.20;;;;;;4567182;57;21102;-33
2021/11/06 05:53:13;;;;;;;35.20;31.33;;;22.10;56.70;;;;;;4576938;57;21051;-30
2021/11/06 05:58:14;;;;;;;34.28;30.52;;;22.10;56.60;;;;;;4578900;57;21043;-34
2021/11/06 06:03:14;;;;;;;35.03;31.02;;;22.10;56.60;;;;;;4616096;57;21116;-34
2021/11/06 06:08:15;;;;;;;34.22;30.15;;;22.10;57.20;;;;;;4571173;57;21039;-22
2021/11/06 06:13:16;;;;;;;34.33;30.60;;;22.10;56.60;;;;;;4578173;57;21545;-30
2021/11/06 06:18:17;;;;;;;32.65;29.17;;;22.10;56.60;;;;;;4601001;57;21079;-27
2021/11/06 06:23:18;;;;;;;35.65;31.45;;;22.10;56.60;;;;;;4557979;57;21071;-21
2021/11/06 06:28:19;;;;;;;33.80;30.02;;;22.10;56.50;;;;;;4651037;57;21509;-29
2021/11/06 06:33:20;;;;;;;32.80;29.23;;;22.10;56.50;;;;;;4578287;57;20996;-25
2021/11/06 06:38:21;;;;;;;32.58;29.08;;;22.10;56.40;;;;;;4565270;57;21063;-28
2021/11/06 06:43:22;;;;;;;32.78;29.15;;;22.10;56.40;;;;;;4580802;57;21051;-25
2021/11/06 06:48:23;;;;;;;32.63;29.12;;;22.10;56.40;;;;;;4574342;57;21099;-25
2021/11/06 06:53:24;;;;;;;32.90;29.30;;;22.10;56.40;;;;;;4557887;61;21549;-26
2021/11/06 06:58:25;;;;;;;33.20;28.80;;;22.10;56.40;;;;;;4565101;57;21075;-28
2021/11/06 07:03:26;;;;;;;32.92;29.08;;;22.10;56.30;;;;;;4572665;57;21039;-21
2021/11/06 07:08:27;;;;;;;32.03;28.55;;;22.10;56.30;;;;;;4583874;57;21075;-33
2021/11/06 07:13:29;;;;;;;31.77;28.48;;;22.10;56.20;;;;;;4558020;61;22482;-29
2021/11/06 07:18:30;;;;;;;32.15;28.65;;;22.10;56.20;;;;;;4557663;61;21554;-29
2021/11/06 07:23:31;;;;;;;32.60;29.02;;;22.10;56.70;;;;;;4606468;57;21051;-28
2021/11/06 07:28:32;;;;;;;32.08;28.58;;;22.10;56.20;;;;;;4603047;57;21082;-30
2021/11/06 07:33:33;;;;;;;31.80;28.40;;;22.10;56.20;;;;;;4558035;61;21058;-27
2021/11/06 07:38:35;;;;;;;31.17;27.77;;;22.00;56.10;;;;;;4558213;61;21569;-32
2021/11/06 07:43:37;;;;;;;31.50;28.02;;;22.10;56.00;;;;;;4558367;61;21115;-24
2021/11/06 07:48:38;;;;;;;32.75;29.20;;;22.10;56.10;;;;;;4575414;57;21601;-31
2021/11/06 07:53:39;;;;;;;33.42;29.75;;;22.10;56.00;;;;;;4558478;61;21076;-32
2021/11/06 07:58:40;;;;;;;33.05;29.48;;;22.10;55.90;;;;;;4601496;57;22210;-31
2021/11/06 08:03:41;;;;;;;33.70;28.70;;;22.10;55.90;;;;;;4564956;57;21157;-31
2021/11/06 08:08:42;;;;;;;35.85;30.02;;;22.10;55.90;;;;;;4578144;57;21486;-26
2021/11/06 08:13:43;;;;;;;34.33;29.92;;;22.10;55.90;;;;;;4567900;57;21103;-26
2021/11/06 08:18:45;;;;;;;36.22;30.02;;;22.10;55.90;;;;;;4579803;57;21068;-21
2021/11/06 08:23:46;;;;;;;38.15;31.73;;;22.10;55.80;;;;;;4582565;57;21572;-36
2021/11/06 08:28:47;;;;;;;34.85;31.02;;;22.00;55.80;;;;;;4559296;57;21131;-30
2021/11/06 08:33:48;;;;;;;37.22;31.75;;;22.10;55.80;;;;;;4569251;57;21545;-32
2021/11/06 08:38:49;;;;;;;38.22;32.63;;;22.10;55.80;;;;;;4585103;57;21042;-30
2021/11/06 08:43:50;;;;;;;39.97;33.78;;;22.10;56.50;;;;;;4577003;57;21031;-25
2021/11/06 08:48:51;;;;;;;40.50;33.97;;;22.10;55.80;;;;;;4581970;57;21093;-27
2021/11/06 08:53:52;;;;;;;42.40;35.03;;;22.10;55.80;;;;;;4561862;57;21039;-20
2021/11/06 08:58:53;;;;;;;42.72;34.25;;;22.10;55.90;;;;;;4565998;57;21521;-22
2021/11/06 09:03:54;;;;;;;43.40;34.50;;;22.10;55.80;;;;;;4619372;57;21111;-25
2021/11/06 09:08:55;;;;;;;44.90;37.22;;;22.10;55.80;;;;;;4583269;57;21079;-27
2021/11/06 09:13:56;;;;;;;46.25;37.22;;;22.10;55.90;;;;;;4589510;57;21973;-31
2021/11/06 09:18:58;;;;;;;47.97;38.55;;;22.10;55.80;;;;;;4564622;57;22524;-31
2021/11/06 09:24:05;;;;;;;52.60;40.70;;;22.10;55.80;;;;;;4561856;57;21126;-31
2021/11/06 09:29:10;;;;;;;50.00;40.97;;;22.00;55.80;;;;;;4604725;57;21537;-29
2021/11/06 09:34:12;;;;;;;52.10;42.08;;;22.10;55.80;;;;;;4572719;57;21126;-25
2021/11/06 09:39:14;;;;;;;52.62;42.20;;;22.10;55.80;;;;;;4569888;57;21034;-31
2021/11/06 09:44:15;;;;;;;54.35;43.20;;;22.10;55.90;;;;;;4592743;57;21466;-20
2021/11/06 09:49:15;;;;;;;52.67;42.65;;;22.10;55.80;;;;;;4582055;57;21086;-28
2021/11/06 09:54:17;;;;;;;54.78;43.80;;;22.10;55.80;;;;;;4586049;57;21023;-36
2021/11/06 09:59:21;;;;;;;57.83;45.12;;;22.10;55.90;;;;;;4564650;57;21566;-22
2021/11/06 10:04:22;;;;;;;60.38;47.35;;;22.00;56.00;;;;;;4573762;57;21116;-30
2021/11/06 10:09:23;;;;;;;59.85;48.40;;;22.10;56.60;;;;;;4562971;57;21593;-34
2021/11/06 10:14:26;;;;;;;61.95;48.55;;;22.00;55.90;;;;;;4575349;57;21076;-34
2021/11/06 10:19:32;;;;;;;62.78;49.47;;;22.00;55.90;;;;;;4592587;57;21071;-31
2021/11/06 10:24:49;;;;;;;62.60;50.75;;;22.00;55.90;;;;;;4580730;57;21127;-29
2021/11/06 10:30:51;;;;;;;66.82;52.30;;;22.10;55.90;;;;;;4566246;57;21078;-32
2021/11/06 10:35:52;;;;;;;65.57;52.75;;;22.10;56.00;;;;;;4570017;57;21562;-30
2021/11/06 10:40:55;;;;;;;65.87;53.55;;;22.00;55.90;;;;;;4557707;59;21480;-25
2021/11/06 10:46:00;;;;;;;71.70;55.92;;;22.00;55.90;;;;;;4590355;57;21137;-32
2021/11/06 10:51:06;;;;;;;69.22;56.80;;;22.10;56.60;;;;;;4570472;57;22028;-32
2021/11/06 10:56:43;;;;;;;72.17;56.10;;;22.10;56.00;;;;;;4569494;57;21537;-23
2021/11/06 11:01:46;;;;;;;72.72;57.50;;;22.00;56.00;;;;;;4586579;57;21059;-22
2021/11/06 11:06:50;;;;;;;76.60;60.25;;;22.10;56.10;;;;;;4574203;57;21145;-30
2021/11/06 11:11:54;;;;;;;75.40;60.25;;;22.00;56.00;;;;;;4580015;57;21114;-34
2021/11/06 11:17:00;;;;;;;75.15;60.80;;;22.00;56.10;;;;;;4565123;57;21028;-33
2021/11/06 11:22:02;;;;;;;74.07;59.63;;;22.00;56.10;;;;;;4556731;61;21127;-36
2021/11/06 11:27:04;;;;;;;76.82;62.22;;;22.00;56.10;;;;;;4557943;58;21039;-31
2021/11/06 11:32:07;;;;;;;76.80;62.47;;;22.00;56.10;;;;;;4557356;57;21083;-33
2021/11/06 11:37:08;;;;;;;83.12;66.22;;;22.00;56.10;;;;;;4564918;57;21031;-30
2021/11/06 11:45:55;;;;;;;82.65;66.57;;;22.00;56.10;;;;;;4570967;57;21241;-29
2021/11/06 11:51:00;;;;;;;81.28;67.53;;;22.00;56.10;;;;;;4585704;57;21500;-31
2021/11/06 11:56:15;;;;;;;90.78;71.35;;;22.10;56.20;;;;;;4577321;57;21003;-30
2021/11/06 12:01:20;;;;;;;86.85;72.47;;;22.10;56.20;;;;;;4558021;58;21103;-29
2021/11/06 12:06:35;;;;;;;88.95;71.90;;;22.10;56.20;;;;;;4578695;57;21083;-20
2021/11/06 12:11:55;;;;;;;94.80;76.00;;;22.00;56.20;;;;;;4569223;57;21534;-36
2021/11/06 12:17:05;;;;;;;98.57;76.57;;;22.00;56.20;;;;;;4576688;57;21043;-28
2021/11/06 12:22:49;;;;;;;94.37;77.35;;;22.10;56.30;;;;;;4564314;57;21115;-30
2021/11/06 12:28:00;;;;;;;95.50;78.53;;;22.10;56.30;;;;;;4570752;57;21039;-28
2021/11/06 12:33:04;;;;;;;101.70;81.90;;;22.00;56.20;;;;;;4584046;57;21163;-29
2021/11/06 12:38:06;;;;;;;103.38;82.05;;;22.10;56.30;;;;;;4579022;57;21525;-30
2021/11/06 12:43:38;;;;;;;102.40;80.75;;;22.10;56.30;;;;;;4561490;57;21135;-26
2021/11/06 12:48:45;;;;;;;102.07;81.78;;;22.10;56.30;;;;;;4575525;57;21063;-35
2021/11/06 12:53:52;;;;;;;99.97;81.67;;;22.00;56.30;;;;;;4588438;57;21660;-27
2021/11/06 12:59:11;;;;;;;106.28;86.47;;;22.10;56.30;;;;;;4564255;57;21023;-26
2021/11/06 13:04:15;;;;;;;109.37;87.85;;;22.10;56.40;;;;;;4572048;57;21016;-21
2021/11/06 13:09:28;;;;;;;107.85;86.80;;;22.10;56.40;;;;;;4564434;57;21051;-31
2021/11/06 13:15:04;;;;;;;114.18;89.00;;;22.00;56.30;;;;;;4581858;57;21031;-28
2021/11/06 13:20:23;;;;;;;111.60;89.22;;;22.00;56.40;;;;;;4573369;57;21142;-31
2021/11/06 13:25:38;;;;;;;116.50;91.50;;;22.00;56.40;;;;;;4557519;59;22336;-33
2021/11/06 13:30:54;;;;;;;115.18;92.60;;;22.00;56.40;;;;;;4577188;57;21445;-29
2021/11/06 13:36:00;;;;;;;112.45;91.35;;;22.00;56.40;;;;;;4574752;57;21039;-29
2021/11/06 13:41:22;;;;;;;118.00;94.37;;;22.00;56.40;;;;;;4558209;61;21047;-32
2021/11/06 13:46:42;;;;;;;119.62;93.37;;;22.00;56.40;;;;;;4571120;57;21529;-32
2021/11/06 13:51:58;;;;;;;111.85;89.75;;;22.00;56.40;;;;;;4567739;57;21078;-28
2021/11/06 13:57:48;;;;;;;121.00;95.95;;;22.00;56.40;;;;;;4557873;57;21549;-30
2021/11/06 14:02:53;;;;;;;120.22;95.87;;;22.00;56.40;;;;;;4579635;57;21015;-32
2021/11/06 14:07:56;;;;;;;122.47;97.70;;;22.00;56.40;;;;;;4589183;57;21486;-30
2021/11/06 14:13:05;;;;;;;117.22;93.55;;;22.00;56.40;;;;;;4560741;57;21059;-31
2021/11/06 14:18:13;;;;;;;118.93;94.95;;;22.00;56.40;;;;;;4563234;57;21072;-30
2021/11/06 14:23:16;;;;;;;119.72;96.07;;;22.00;56.60;;;;;;4564291;57;21609;-24
2021/11/06 14:28:23;;;;;;;117.35;94.05;;;22.00;56.40;;;;;;4572851;57;21376;-28
2021/11/06 14:33:39;;;;;;;118.53;94.45;;;22.00;56.40;;;;;;4574675;57;22717;-36
2021/11/06 14:39:13;;;;;;;117.78;94.00;;;22.00;56.40;;;;;;4569917;57;21023;-27
2021/11/06 14:44:19;;;;;;;119.87;96.20;;;22.10;56.50;;;;;;4570564;57;21518;-29
2021/11/06 14:50:06;;;;;;;121.37;95.57;;;22.00;56.40;;;;;;4579762;57;22265;-22
2021/11/06 14:55:14;;;;;;;119.55;95.25;;;22.00;56.40;;;;;;4557622;61;21103;-31
2021/11/06 15:00:35;;;;;;;112.82;93.18;;;22.00;56.40;;;;;;4572212;57;21196;-33
2021/11/06 15:05:42;;;;;;;114.90;93.70;;;22.00;56.40;;;;;;4557681;61;21118;-33
2021/11/06 15:10:45;;;;;;;117.73;95.00;;;22.00;56.40;;;;;;4592889;57;21526;-31
2021/11/06 15:15:49;;;;;;;113.53;92.97;;;22.00;56.40;;;;;;4577315;57;21606;-31
2021/11/06 15:20:50;;;;;;;118.47;96.63;;;22.00;56.40;;;;;;4557163;61;21968;-36
2021/11/06 15:25:51;;;;;;;116.95;93.95;;;22.00;56.40;;;;;;4587739;57;21063;-35
2021/11/06 15:30:52;;;;;;;120.40;95.28;;;22.00;56.40;;;;;;4558566;57;21087;-36
2021/11/06 15:35:53;;;;;;;115.60;95.22;;;22.00;56.30;;;;;;4572443;57;21126;-33
2021/11/06 15:40:54;;;;;;;114.88;93.12;;;22.00;56.30;;;;;;4561472;57;21067;-36
2021/11/06 15:45:55;;;;;;;121.13;97.03;;;22.00;56.30;;;;;;4575010;57;21031;-35
2021/11/06 15:50:57;;;;;;;116.60;94.18;;;22.00;56.30;;;;;;4601296;57;22096;-28
2021/11/06 15:55:58;;;;;;;116.05;93.40;;;22.00;56.30;;;;;;4558031;61;21115;-35
2021/11/06 16:01:06;;;;;;;115.30;93.70;;;22.00;56.30;;;;;;4600069;57;21742;-31
2021/11/06 16:06:07;;;;;;;117.03;93.95;;;22.00;56.30;;;;;;4610069;57;21564;-31
2021/11/06 16:11:08;;;;;;;110.50;90.43;;;22.00;56.30;;;;;;4558875;57;21119;-35
2021/11/06 16:16:13;;;;;;;112.07;90.60;;;22.10;56.30;;;;;;4562315;57;21084;-30
2021/11/06 16:21:16;;;;;;;112.70;93.15;;;22.00;56.20;;;;;;4580710;57;21065;-37
2021/11/06 16:26:19;;;;;;;113.05;92.22;;;22.00;56.20;;;;;;4565373;57;21522;-26
2021/11/06 16:31:22;;;;;;;109.43;92.03;;;22.00;56.10;;;;;;4560938;57;21058;-31
2021/11/06 16:36:25;;;;;;;109.72;89.32;;;22.00;56.20;;;;;;4572553;57;21545;-32
2021/11/06 16:41:25;;;;;;;114.43;93.12;;;22.00;56.10;;;;;;4577740;57;21520;-36
2021/11/06 16:46:26;;;;;;;108.40;88.65;;;22.00;56.10;;;;;;4584549;57;21047;-36
2021/11/06 16:51:28;;;;;;;110.20;91.57;;;22.00;56.10;;;;;;4571085;57;21063;-31
2021/11/06 16:56:29;;;;;;;113.30;90.35;;;22.00;56.10;;;;;;4557751;57;21102;-29
2021/11/06 17:01:31;;;;;;;109.95;89.10;;;22.00;56.10;;;;;;4558361;57;21028;-34
2021/11/06 17:06:32;;;;;;;110.43;89.93;;;22.00;56.10;;;;;;4563299;57;21521;-25
2021/11/06 17:11:33;;;;;;;112.68;91.63;;;22.00;56.10;;;;;;4569812;57;21680;-32
2021/11/06 17:16:34;;;;;;;105.45;86.80;;;22.00;56.10;;;;;;4557839;61;21115;-37
2021/11/06 17:21:36;;;;;;;110.32;91.50;;;22.00;56.10;;;;;;4569158;57;21104;-32
2021/11/06 17:26:38;;;;;;;109.45;88.32;;;22.00;56.00;;;;;;4575877;57;21059;-37
2021/11/06 17:31:39;;;;;;;110.25;90.72;;;22.00;56.00;;;;;;4616434;57;21605;-36
2021/11/06 17:36:40;;;;;;;106.60;88.05;;;22.00;56.00;;;;;;4581323;57;21184;-34
2021/11/06 17:41:41;;;;;;;110.55;89.62;;;22.00;56.10;;;;;;4568067;57;21099;-34
2021/11/06 17:46:42;;;;;;;108.22;88.95;;;22.00;56.00;;;;;;4567887;57;21087;-34
2021/11/06 17:51:55;;;;;;;107.30;87.35;;;22.00;56.00;;;;;;4566552;57;21142;-34
2021/11/06 17:56:56;;;;;;;107.70;89.25;;;22.00;56.00;;;;;;4575464;57;21957;-33
2021/11/06 18:01:57;;;;;;;103.50;83.90;;;22.00;55.90;;;;;;4557515;61;21063;-33
2021/11/06 18:06:58;;;;;;;105.22;87.47;;;22.00;56.50;;;;;;4599706;57;21067;-29
2021/11/06 18:11:59;;;;;;;104.68;85.35;;;22.00;55.90;;;;;;4585338;57;21147;-33
2021/11/06 18:17:00;;;;;;;107.47;87.78;;;22.00;55.90;;;;;;4603927;57;21529;-30
2021/11/06 18:22:00;;;;;;;108.65;88.30;;;22.00;55.90;;;;;;4557178;61;21072;-37
2021/11/06 18:27:02;;;;;;;106.87;89.25;;;22.00;55.90;;;;;;4587485;57;21063;-18
2021/11/06 18:32:03;;;;;;;103.15;85.65;;;22.00;55.90;;;;;;4572058;57;21537;-35
2021/11/06 18:37:06;;;;;;;103.78;85.55;;;22.00;55.90;;;;;;4557538;61;21023;-28
2021/11/06 18:42:07;;;;;;;102.57;83.97;;;22.00;55.90;;;;;;4578322;57;21554;-32
2021/11/06 18:47:11;;;;;;;102.55;84.75;;;22.00;55.80;;;;;;4624516;57;21504;-30
2021/11/06 18:52:14;;;;;;;108.22;87.55;;;22.00;55.90;;;;;;4557254;61;21616;-34
2021/11/06 18:57:15;;;;;;;104.10;85.35;;;22.00;55.80;;;;;;4564560;57;21096;-33
2021/11/06 19:02:16;;;;;;;104.22;85.80;;;22.00;55.80;;;;;;4561646;57;21107;-35
2021/11/06 19:07:21;;;;;;;102.12;85.03;;;22.00;55.80;;;;;;4557501;61;21079;-30
2021/11/06 19:12:23;;;;;;;99.10;82.32;;;22.00;55.80;;;;;;4571785;57;21103;-29
2021/11/06 19:17:24;;;;;;;102.12;86.07;;;22.00;55.80;;;;;;4558371;57;21031;-36
2021/11/06 19:22:26;;;;;;;99.35;82.00;;;22.00;55.80;;;;;;4588315;57;21190;-33
2021/11/06 19:27:41;;;;;;;106.00;85.32;;;22.00;55.80;;;;;;4562280;57;21175;-32
2021/11/06 19:32:42;;;;;;;102.18;82.82;;;22.00;55.70;;;;;;4560027;57;21637;-36
2021/11/06 19:37:43;;;;;;;99.75;82.43;;;22.00;55.70;;;;;;4597267;57;21107;-26
2021/11/06 19:42:44;;;;;;;96.28;81.18;;;22.00;55.70;;;;;;4564985;57;21101;-27
2021/11/06 19:47:52;;;;;;;98.65;81.80;;;22.00;55.70;;;;;;4579265;57;21678;-38
2021/11/06 19:52:54;;;;;;;100.82;81.60;;;22.00;55.70;;;;;;4557092;58;22202;-30
2021/11/06 19:57:55;;;;;;;103.65;84.45;;;22.00;55.70;;;;;;4558326;61;22588;-30
2021/11/06 20:02:58;;;;;;;96.90;81.35;;;22.00;55.70;;;;;;4567184;57;21063;-38
2021/11/06 20:08:04;;;;;;;100.95;82.60;;;22.00;55.60;;;;;;4570494;57;21066;-31
2021/11/06 20:13:06;;;;;;;96.95;81.78;;;22.00;55.60;;;;;;4562719;57;21593;-33
2021/11/06 20:18:07;;;;;;;99.43;82.55;;;22.00;55.60;;;;;;4581024;57;21047;-32
2021/11/06 20:23:09;;;;;;;99.57;83.78;;;22.00;55.60;;;;;;4624092;57;21079;-35
2021/11/06 20:28:10;;;;;;;98.80;83.85;;;22.00;55.60;;;;;;4608109;57;21598;-27
2021/11/06 20:33:11;;;;;;;97.20;81.75;;;22.00;55.60;;;;;;4565204;57;21047;-30
2021/11/06 20:38:12;;;;;;;95.62;79.70;;;22.00;55.50;;;;;;4579608;57;21481;-34
2021/11/06 20:43:12;;;;;;;96.12;78.90;;;22.00;55.50;;;;;;4640648;57;21087;-20
2021/11/06 20:48:13;;;;;;;95.43;80.22;;;22.00;55.50;;;;;;4559064;57;21459;-32
2021/11/06 20:53:14;;;;;;;94.18;79.40;;;22.00;55.50;;;;;;4556939;58;21084;-38
2021/11/06 20:58:15;;;;;;;92.85;78.62;;;22.00;55.60;;;;;;4558541;57;21470;-32
2021/11/06 21:03:16;;;;;;;100.85;81.15;;;22.00;55.50;;;;;;4562968;57;21509;-29
2021/11/06 21:08:17;;;;;;;95.78;79.60;;;22.00;55.50;;;;;;4591922;57;21026;-35
2021/11/06 21:18:41;;;;;;;94.68;78.55;;;22.00;55.40;;;;;;4598766;57;21135;-33
2021/11/06 21:23:43;;;;;;;94.53;77.90;;;22.00;55.40;;;;;;4574115;57;22075;-33
2021/11/06 21:28:48;;;;;;;93.05;78.00;;;22.00;55.40;;;;;;4574045;57;21907;-34
2021/11/06 21:33:56;;;;;;;92.82;77.22;;;22.00;55.40;;;;;;4558338;61;21564;-36
2021/11/06 21:39:00;;;;;;;91.65;76.00;;;22.00;55.40;;;;;;4557909;61;21095;-36
2021/11/06 21:44:01;;;;;;;87.82;72.60;;;22.00;55.40;;;;;;4600371;57;21530;-31
2021/11/06 21:49:05;;;;;;;88.47;76.60;;;22.00;55.30;;;;;;4558115;57;21075;-36
2021/11/06 21:54:07;;;;;;;87.80;74.90;;;22.00;55.30;;;;;;4572794;57;21566;-33
2021/11/06 21:59:10;;;;;;;85.70;72.22;;;22.00;55.30;;;;;;4558005;57;21067;-26
2021/11/06 22:04:11;;;;;;;86.60;73.60;;;22.00;55.30;;;;;;4609110;57;21035;-34
2021/11/06 22:09:12;;;;;;;84.70;71.87;;;21.90;55.20;;;;;;4572559;57;21573;-31
2021/11/06 22:14:13;;;;;;;86.75;74.35;;;22.00;55.20;;;;;;4569934;57;21457;-37
2021/11/06 22:19:16;;;;;;;82.47;72.10;;;21.90;55.20;;;;;;4583800;57;21068;-27
2021/11/06 22:24:17;;;;;;;86.05;72.40;;;22.00;55.20;;;;;;4582380;57;21556;-35
2021/11/06 22:29:19;;;;;;;81.40;70.18;;;22.00;55.20;;;;;;4570625;57;21509;-32
2021/11/06 22:34:20;;;;;;;83.47;71.87;;;22.00;55.10;;;;;;4558062;61;21612;-33
2021/11/06 22:39:21;;;;;;;82.75;69.28;;;22.00;55.10;;;;;;4621529;57;21495;-33
2021/11/06 22:44:23;;;;;;;80.97;71.32;;;22.00;55.10;;;;;;4581112;57;21076;-30
2021/11/06 22:49:24;;;;;;;80.57;68.97;;;22.00;55.10;;;;;;4570347;57;21047;-25
2021/11/06 22:54:25;;;;;;;80.53;68.28;;;22.00;55.10;;;;;;4564139;57;21067;-37
2021/11/06 22:59:26;;;;;;;79.32;68.40;;;22.00;55.80;;;;;;4574712;57;21039;-35
2021/11/06 23:04:30;;;;;;;78.87;67.50;;;22.00;55.10;;;;;;4564049;57;21111;-32
2021/11/06 23:09:31;;;;;;;79.97;68.22;;;21.90;55.00;;;;;;4557608;58;21561;-33
2021/11/06 23:14:32;;;;;;;78.60;66.45;;;22.00;55.00;;;;;;4582594;57;22228;-35
2021/11/06 23:19:35;;;;;;;75.35;65.45;;;22.00;55.00;;;;;;4556957;61;21170;-36
2021/11/06 23:24:35;;;;;;;76.82;63.90;;;22.00;55.00;;;;;;4560530;57;21062;-34
2021/11/06 23:29:37;;;;;;;78.05;66.15;;;22.00;55.00;;;;;;4566430;57;21605;-36
2021/11/06 23:34:42;;;;;;;76.97;65.60;;;21.90;54.90;;;;;;4604813;57;21557;-37
2021/11/06 23:39:43;;;;;;;78.45;65.50;;;22.00;55.00;;;;;;4600554;57;21506;-29
2021/11/06 23:44:44;;;;;;;77.07;63.67;;;21.90;54.90;;;;;;4575436;57;21526;-33
2021/11/06 23:49:45;;;;;;;75.32;65.60;;;21.90;54.90;;;;;;4557300;61;21530;-25
2021/11/06 23:54:56;;;;;;;77.22;64.82;;;22.00;54.90;;;;;;4557336;61;21561;-36
